createdAt,value
2023-03-06T00:02:17.687Z,21.15
2023-03-06T00:05:20.984Z,16.67
2023-03-06T00:08:25.401Z,18.15
2023-03-06T00:11:28.381Z,20.08
2023-03-06T00:14:31.370Z,16.98
2023-03-06T00:17:34.468Z,18.75
2023-03-06T00:20:39.616Z,20.65
2023-03-06T00:23:43.109Z,21.30
2023-03-06T00:26:45.893Z,19.08
2023-03-06T00:29:49.997Z,19.17
2023-03-06T00:32:54.217Z,18.33
2023-03-06T00:35:57.443Z,17.55
2023-03-06T00:39:00.505Z,17.33
2023-03-06T00:42:03.800Z,18.08
2023-03-06T00:45:07.388Z,19.25
2023-03-06T00:48:11.819Z,15.75
2023-03-06T00:51:15.009Z,17.52
2023-03-06T00:54:17.997Z,17.85
2023-03-06T00:57:21.189Z,19.40
2023-03-06T01:00:24.280Z,18.30
2023-03-06T01:03:27.265Z,17.38
2023-03-06T01:06:30.560Z,18.38
2023-03-06T01:09:34.068Z,17.65
2023-03-06T01:12:36.638Z,15.63
2023-03-06T01:15:39.316Z,18.63
2023-03-06T01:18:43.018Z,22.15
2023-03-06T01:21:46.419Z,17.50
2023-03-06T01:24:49.509Z,17.95
2023-03-06T01:27:53.521Z,15.93
2023-03-06T01:30:56.811Z,15.25
2023-03-06T01:33:59.902Z,16.48
2023-03-06T01:37:02.791Z,17.83
2023-03-06T01:40:07.516Z,16.55
2023-03-06T01:43:32.836Z,15.10
2023-03-06T01:46:42.484Z,15.40
2023-03-06T01:49:45.680Z,15.90
2023-03-06T01:52:54.483Z,18.55
2023-03-06T01:55:57.482Z,15.63
2023-03-06T01:59:02.111Z,17.77
2023-03-06T02:02:09.237Z,17.33
2023-03-06T02:05:13.211Z,15.75
2023-03-06T02:08:19.475Z,14.27
2023-03-06T02:11:26.904Z,14.45
2023-03-06T02:14:30.566Z,18.38
2023-03-06T02:17:35.916Z,15.32
2023-03-06T02:20:46.477Z,14.68
2023-03-06T02:23:54.992Z,17.75
2023-03-06T02:27:00.039Z,17.30
2023-03-06T02:30:08.136Z,13.27
2023-03-06T02:33:16.453Z,15.85
2023-03-06T02:36:19.539Z,15.10
2023-03-06T02:39:26.418Z,15.55
2023-03-06T02:42:29.828Z,15.77
2023-03-06T02:45:49.241Z,17.25
2023-03-06T02:48:52.281Z,17.80
2023-03-06T02:51:55.565Z,14.98
2023-03-06T02:54:58.660Z,18.15
2023-03-06T02:58:02.265Z,18.00
2023-03-06T03:01:05.857Z,15.98
2023-03-06T03:04:09.612Z,16.52
2023-03-06T03:07:12.862Z,16.70
2023-03-06T03:10:16.364Z,17.17
2023-03-06T03:13:19.965Z,18.55
2023-03-06T03:16:23.158Z,21.85
2023-03-06T03:19:26.245Z,17.40
2023-03-06T03:22:29.645Z,17.92
2023-03-06T03:25:32.838Z,21.42
2023-03-06T03:28:36.332Z,19.40
2023-03-06T03:31:39.436Z,22.20
2023-03-06T03:34:42.836Z,20.08
2023-03-06T03:37:46.224Z,27.80
2023-03-06T03:40:49.422Z,20.27
2023-03-06T03:43:52.924Z,23.95
2023-03-06T03:46:55.910Z,21.05
2023-03-06T03:49:59.209Z,19.98
2023-03-06T03:53:02.294Z,23.90
2023-03-06T03:56:06.512Z,23.52
2023-03-06T03:59:10.521Z,19.65
2023-03-06T04:02:13.538Z,20.75
2023-03-06T04:05:17.326Z,19.02
2023-03-06T04:08:21.326Z,19.70
2023-03-06T04:11:25.027Z,19.08
2023-03-06T04:14:28.218Z,21.25
2023-03-06T04:17:34.284Z,19.90
2023-03-06T04:20:37.678Z,22.13
2023-03-06T04:23:41.081Z,19.65
2023-03-06T04:26:44.168Z,21.05
2023-03-06T04:29:47.155Z,21.30
2023-03-06T04:32:50.353Z,24.52
2023-03-06T04:35:53.810Z,24.65
2023-03-06T04:38:57.317Z,22.48
2023-03-06T04:42:00.437Z,19.98
2023-03-06T04:45:03.531Z,20.65
2023-03-06T04:48:09.592Z,21.35
2023-03-06T04:51:14.238Z,21.77
2023-03-06T04:54:18.994Z,21.58
2023-03-06T04:57:22.756Z,19.05
2023-03-06T05:00:31.922Z,19.95
2023-03-06T05:03:35.188Z,26.80
2023-03-06T05:06:38.272Z,23.88
2023-03-06T05:09:41.676Z,21.02
2023-03-06T05:12:44.961Z,24.80
2023-03-06T05:15:48.052Z,21.23
2023-03-06T05:18:51.142Z,26.15
2023-03-06T05:21:54.225Z,23.45
2023-03-06T05:24:57.337Z,24.40
2023-03-06T05:28:00.204Z,27.70
2023-03-06T05:31:03.606Z,25.17
2023-03-06T05:34:06.887Z,26.08
2023-03-06T05:37:10.192Z,24.58
2023-03-06T05:40:13.815Z,27.55
2023-03-06T05:43:17.088Z,29.35
2023-03-06T05:46:20.199Z,26.55
2023-03-06T05:49:23.483Z,27.55
2023-03-06T05:52:27.187Z,28.20
2023-03-06T05:55:30.591Z,42.72
2023-03-06T05:58:35.011Z,31.00
2023-03-06T06:01:37.888Z,36.95
2023-03-06T06:04:41.184Z,26.48
2023-03-06T06:07:44.066Z,26.85
2023-03-06T06:10:47.054Z,28.55
2023-03-06T06:13:50.260Z,29.30
2023-03-06T06:16:53.444Z,26.02
2023-03-06T06:19:56.631Z,29.98
2023-03-06T06:22:59.840Z,37.90
2023-03-06T06:26:08.138Z,79.03
2023-03-06T06:29:12.666Z,124.50
2023-03-06T06:32:15.896Z,70.47
2023-03-06T06:35:19.303Z,45.42
2023-03-06T06:38:22.447Z,81.20
2023-03-06T06:41:46.187Z,32.03
2023-03-06T06:44:50.741Z,33.20
2023-03-06T06:47:53.884Z,41.45
2023-03-06T06:50:58.461Z,29.98
2023-03-06T06:54:02.069Z,35.70
2023-03-06T06:57:05.251Z,41.03
2023-03-06T07:00:09.801Z,45.72
2023-03-06T07:03:13.480Z,32.58
2023-03-06T07:06:16.779Z,35.45
2023-03-06T07:09:20.581Z,36.58
2023-03-06T07:12:23.982Z,39.25
2023-03-06T07:15:27.486Z,33.28
2023-03-06T07:18:30.989Z,34.63
2023-03-06T07:21:34.606Z,47.72
2023-03-06T07:24:37.484Z,49.47
2023-03-06T07:27:40.991Z,52.22
2023-03-06T07:30:44.667Z,38.65
2023-03-06T07:33:48.700Z,37.80
2023-03-06T07:36:51.882Z,39.10
2023-03-06T07:39:55.077Z,37.60
2023-03-06T07:43:12.839Z,38.00
2023-03-06T07:46:16.684Z,36.58
2023-03-06T07:49:19.914Z,38.65
2023-03-06T07:52:23.927Z,36.33
2023-03-06T07:55:27.424Z,39.33
2023-03-06T07:58:30.948Z,39.25
2023-03-06T08:01:34.237Z,37.00
2023-03-06T08:04:37.436Z,35.38
2023-03-06T08:07:40.505Z,34.58
2023-03-06T08:10:49.436Z,34.92
2023-03-06T08:13:53.242Z,33.15
2023-03-06T08:16:56.944Z,29.90
2023-03-06T08:20:06.190Z,34.80
2023-03-06T08:23:09.881Z,30.17
2023-03-06T08:26:20.244Z,31.10
2023-03-06T08:29:23.635Z,29.33
2023-03-06T08:32:27.244Z,32.22
2023-03-06T08:35:30.491Z,30.20
2023-03-06T08:38:34.241Z,32.10
2023-03-06T08:41:38.461Z,29.63
2023-03-06T08:44:41.447Z,29.80
2023-03-06T08:47:44.654Z,28.85
2023-03-06T08:50:47.726Z,27.73
2023-03-06T08:53:52.156Z,29.48
2023-03-06T08:56:55.673Z,30.02
2023-03-06T08:59:58.841Z,27.38
2023-03-06T09:03:02.038Z,26.45
2023-03-06T09:06:05.126Z,31.27
2023-03-06T09:09:09.662Z,28.08
2023-03-06T09:12:12.761Z,27.02
2023-03-06T09:15:16.067Z,28.55
2023-03-06T09:18:19.234Z,29.77
2023-03-06T09:21:25.907Z,28.23
2023-03-06T09:24:28.905Z,25.10
2023-03-06T09:27:32.096Z,23.45
2023-03-06T09:30:35.346Z,21.15
2023-03-06T09:33:38.888Z,20.33
2023-03-06T09:36:55.623Z,24.27
2023-03-06T09:39:59.935Z,22.02
2023-03-06T09:43:03.010Z,25.63
2023-03-06T09:46:40.919Z,23.63
2023-03-06T09:49:46.777Z,21.90
2023-03-06T09:53:12.192Z,30.08
2023-03-06T09:56:24.802Z,28.15
2023-03-06T09:59:29.119Z,26.48
2023-03-06T10:02:46.548Z,25.90
2023-03-06T10:06:14.833Z,26.10
2023-03-06T10:09:24.889Z,27.65
2023-03-06T10:12:32.291Z,26.52
2023-03-06T10:15:38.862Z,26.70
2023-03-06T10:18:41.963Z,26.33
2023-03-06T10:22:05.820Z,31.63
2023-03-06T10:25:28.369Z,29.33
2023-03-06T10:28:41.901Z,30.10
2023-03-06T10:31:49.767Z,27.00
2023-03-06T10:34:53.441Z,30.02
2023-03-06T10:38:16.580Z,29.35
2023-03-06T10:41:35.537Z,38.53
2023-03-06T10:44:38.727Z,39.58
2023-03-06T10:47:42.329Z,28.10
2023-03-06T10:50:45.315Z,29.52
2023-03-06T10:53:56.807Z,32.30
2023-03-06T10:57:35.738Z,31.13
2023-03-06T11:00:38.822Z,27.55
2023-03-06T11:03:41.925Z,25.42
2023-03-06T11:06:45.204Z,29.38
2023-03-06T11:10:22.403Z,30.77
2023-03-06T11:13:28.157Z,28.30
2023-03-06T11:16:31.581Z,24.70
2023-03-06T11:19:34.850Z,26.42
2023-03-06T11:22:41.367Z,24.85
2023-03-06T11:26:04.992Z,26.98
2023-03-06T11:29:33.120Z,26.35
2023-03-06T11:32:50.582Z,25.00
2023-03-06T11:36:39.870Z,28.60
2023-03-06T11:39:59.755Z,26.50
2023-03-06T11:43:28.549Z,25.45
2023-03-06T11:46:43.531Z,26.48
2023-03-06T11:49:53.063Z,25.15
2023-03-06T11:56:31.893Z,27.35
2023-03-06T11:59:51.287Z,26.77
2023-03-06T12:03:23.164Z,27.58
2023-03-06T12:06:49.693Z,27.95
2023-03-06T12:10:19.920Z,27.20
2023-03-06T12:13:41.753Z,26.03
2023-03-06T12:16:59.073Z,26.88
2023-03-06T12:20:23.059Z,27.42
2023-03-06T12:23:56.053Z,29.00
2023-03-06T12:27:25.674Z,28.35
2023-03-06T12:30:57.730Z,26.80
2023-03-06T12:34:12.805Z,32.63
2023-03-06T12:37:37.293Z,27.13
2023-03-06T12:40:53.084Z,32.20
2023-03-06T12:44:04.158Z,53.83
2023-03-06T12:47:15.356Z,27.70
2023-03-06T12:50:33.897Z,33.30
2023-03-06T12:53:37.909Z,35.67
2023-03-06T12:56:42.647Z,31.23
2023-03-06T12:59:50.243Z,34.38
2023-03-06T13:03:47.191Z,30.02
2023-03-06T13:07:12.299Z,41.28
2023-03-06T13:10:30.961Z,29.13
2023-03-06T13:13:44.907Z,37.25
2023-03-06T13:16:48.553Z,47.47
2023-03-06T13:20:16.785Z,37.63
2023-03-06T13:23:41.284Z,37.20
2023-03-06T13:26:44.676Z,36.17
2023-03-06T13:29:53.199Z,28.33
2023-03-06T13:32:56.698Z,37.03
2023-03-06T13:36:19.756Z,32.20
2023-03-06T13:39:22.640Z,35.63
2023-03-06T13:42:57.784Z,38.70
2023-03-06T13:46:26.618Z,29.45
2023-03-06T13:49:31.000Z,31.65
2023-03-06T13:52:55.696Z,40.33
2023-03-06T13:56:22.739Z,37.72
2023-03-06T13:59:33.723Z,34.15
2023-03-06T14:03:05.072Z,34.35
2023-03-06T14:06:37.560Z,32.03
2023-03-06T14:09:46.322Z,31.27
2023-03-06T14:12:52.037Z,34.28
2023-03-06T14:15:56.392Z,30.73
2023-03-06T14:19:01.186Z,30.77
2023-03-06T14:22:07.452Z,33.95
2023-03-06T14:25:24.465Z,36.95
2023-03-06T14:28:30.218Z,37.80
2023-03-06T14:31:41.191Z,37.22
2023-03-06T14:34:47.359Z,32.10
2023-03-06T14:37:55.881Z,33.05
2023-03-06T14:40:59.175Z,56.15
2023-03-06T14:44:19.623Z,37.30
2023-03-06T14:47:31.364Z,28.95
2023-03-06T14:50:35.383Z,39.63
2023-03-06T14:53:38.460Z,36.53
2023-03-06T14:56:44.431Z,34.08
2023-03-06T15:00:19.217Z,32.35
2023-03-06T15:03:28.605Z,32.33
2023-03-06T15:06:40.668Z,34.22
2023-03-06T15:09:54.756Z,35.90
2023-03-06T15:13:09.227Z,39.30
2023-03-06T15:16:15.322Z,34.60
2023-03-06T15:19:20.506Z,31.38
2023-03-06T15:22:42.958Z,36.15
2023-03-06T15:26:00.275Z,32.58
2023-03-06T15:29:10.220Z,29.92
2023-03-06T15:32:34.982Z,31.23
2023-03-06T15:35:38.947Z,29.60
2023-03-06T15:38:44.625Z,29.92
2023-03-06T15:41:48.701Z,27.63
2023-03-06T15:44:55.180Z,28.98
2023-03-06T15:47:58.165Z,30.88
2023-03-06T15:51:02.936Z,35.45
2023-03-06T15:54:12.332Z,28.58
2023-03-06T15:57:31.638Z,29.80
2023-03-06T16:00:38.688Z,33.97
2023-03-06T16:03:42.087Z,30.77
2023-03-06T16:06:46.099Z,29.77
2023-03-06T16:09:49.394Z,29.38
2023-03-06T16:13:04.476Z,96.38
2023-03-06T16:16:11.206Z,156.05
2023-03-06T16:19:27.644Z,48.92
2023-03-06T16:22:31.041Z,29.90
2023-03-06T16:25:34.761Z,28.38
2023-03-06T16:28:40.921Z,28.77
2023-03-06T16:31:44.305Z,34.78
2023-03-06T16:34:47.894Z,27.30
2023-03-06T16:37:51.612Z,30.40
2023-03-06T16:40:55.001Z,62.63
2023-03-06T16:43:58.820Z,31.15
2023-03-06T16:47:02.219Z,26.67
2023-03-06T16:50:06.227Z,32.72
2023-03-06T16:53:10.658Z,30.55
2023-03-06T16:56:15.794Z,30.83
2023-03-06T16:59:21.178Z,29.02
2023-03-06T17:02:24.550Z,31.67
2023-03-06T17:05:29.073Z,31.38
2023-03-06T17:08:33.796Z,31.65
2023-03-06T17:11:43.229Z,36.53
2023-03-06T17:14:46.324Z,33.73
2023-03-06T17:17:51.976Z,77.60
2023-03-06T17:20:56.500Z,51.45
2023-03-06T17:24:01.989Z,43.58
2023-03-06T17:27:05.744Z,42.05
2023-03-06T17:30:10.272Z,55.10
2023-03-06T17:33:14.391Z,72.45
2023-03-06T17:36:19.729Z,191.18
2023-03-06T17:39:23.934Z,234.85
2023-03-06T17:42:28.063Z,151.55
2023-03-06T17:45:31.463Z,122.65
2023-03-06T17:48:36.305Z,133.77
2023-03-06T17:51:40.001Z,101.43
2023-03-06T17:54:44.117Z,105.20
2023-03-06T17:57:47.508Z,107.43
2023-03-06T18:00:51.624Z,124.25
2023-03-06T18:03:55.047Z,77.20
2023-03-06T18:06:58.824Z,108.30
2023-03-06T18:10:07.556Z,123.53
2023-03-06T18:13:12.588Z,122.40
2023-03-06T18:16:19.299Z,336.38
2023-03-06T18:19:22.870Z,166.45
2023-03-06T18:22:27.388Z,133.80
2023-03-06T18:25:33.240Z,172.90
2023-03-06T18:28:37.565Z,187.50
2023-03-06T18:31:43.159Z,141.10
2023-03-06T18:34:49.889Z,119.80
2023-03-06T18:37:54.308Z,142.20
2023-03-06T18:40:58.425Z,118.57
2023-03-06T18:44:02.672Z,146.10
2023-03-06T18:47:06.867Z,183.23
2023-03-06T18:50:13.430Z,172.40
2023-03-06T18:53:18.570Z,141.93
2023-03-06T18:56:23.505Z,167.70
2023-03-06T18:59:27.928Z,178.48
2023-03-06T19:02:32.347Z,158.90
2023-03-06T19:05:42.715Z,151.68
2023-03-06T19:08:47.037Z,170.52
2023-03-06T19:11:54.401Z,180.98
2023-03-06T19:14:59.362Z,175.35
2023-03-06T19:18:03.586Z,121.53
2023-03-06T19:21:18.542Z,149.45
2023-03-06T19:24:24.109Z,106.30
2023-03-06T19:27:30.568Z,119.13
2023-03-06T19:30:34.893Z,209.27
2023-03-06T19:33:39.003Z,165.70
2023-03-06T19:36:42.815Z,169.27
2023-03-06T19:39:46.929Z,167.90
2023-03-06T19:42:51.761Z,156.30
2023-03-06T19:45:56.083Z,164.32
2023-03-06T19:49:02.606Z,154.57
2023-03-06T19:52:10.050Z,160.05
2023-03-06T19:55:15.185Z,150.80
2023-03-06T19:58:19.494Z,163.43
2023-03-06T20:01:26.411Z,143.57
2023-03-06T20:04:35.167Z,139.88
2023-03-06T20:07:39.302Z,122.07
2023-03-06T20:10:43.737Z,103.93
2023-03-06T20:13:48.273Z,100.82
2023-03-06T20:16:52.679Z,120.45
2023-03-06T20:19:57.199Z,106.00
2023-03-06T20:23:07.055Z,99.10
2023-03-06T20:29:19.272Z,122.45
2023-03-06T20:32:24.056Z,124.38
2023-03-06T20:35:28.325Z,120.00
2023-03-06T20:38:32.434Z,118.50
2023-03-06T20:41:37.572Z,112.82
2023-03-06T20:44:41.682Z,106.18
2023-03-06T20:47:47.651Z,110.95
2023-03-06T20:51:04.561Z,106.50
2023-03-06T20:54:11.742Z,109.68
2023-03-06T20:57:15.351Z,110.68
2023-03-06T21:00:21.325Z,135.82
2023-03-06T21:03:25.618Z,110.05
2023-03-06T21:06:31.072Z,134.52
2023-03-06T21:09:39.808Z,117.50
2023-03-06T21:12:42.880Z,118.30
2023-03-06T21:15:48.151Z,97.80
2023-03-06T21:18:51.420Z,88.00
2023-03-06T21:21:54.726Z,79.43
2023-03-06T21:24:58.018Z,73.03
2023-03-06T21:28:01.518Z,74.95
2023-03-06T21:31:08.042Z,72.07
2023-03-06T21:34:12.305Z,76.65
2023-03-06T21:37:15.807Z,201.27
2023-03-06T21:40:19.520Z,79.80
2023-03-06T21:43:23.014Z,89.68
2023-03-06T21:46:27.545Z,76.30
2023-03-06T21:49:30.714Z,77.82
2023-03-06T21:52:33.407Z,69.28
2023-03-06T21:55:40.823Z,61.75
2023-03-06T21:58:44.208Z,62.83
2023-03-06T22:01:48.007Z,56.00
2023-03-06T22:04:52.936Z,57.03
2023-03-06T22:07:56.029Z,61.65
2023-03-06T22:10:58.920Z,57.78
2023-03-06T22:14:01.905Z,60.50
2023-03-06T22:17:05.438Z,56.25
2023-03-06T22:20:09.618Z,55.78
2023-03-06T22:23:13.247Z,62.25
2023-03-06T22:26:16.619Z,66.93
2023-03-06T22:29:19.918Z,67.47
2023-03-06T22:32:23.048Z,68.80
2023-03-06T22:35:26.508Z,69.60
2023-03-06T22:38:29.806Z,67.05
2023-03-06T22:41:33.194Z,75.25
2023-03-06T22:44:36.292Z,69.55
2023-03-06T22:47:39.688Z,72.35
2023-03-06T22:50:42.880Z,74.55
2023-03-06T22:53:47.204Z,67.05
2023-03-06T22:56:50.188Z,64.18
2023-03-06T22:59:53.889Z,65.80
2023-03-06T23:02:57.179Z,62.03
2023-03-06T23:05:59.968Z,59.38
2023-03-06T23:09:21.188Z,62.10
2023-03-06T23:12:24.483Z,55.92
2023-03-06T23:15:27.521Z,54.67
2023-03-06T23:18:31.173Z,53.38
2023-03-06T23:21:34.982Z,58.65
2023-03-06T23:24:38.079Z,55.28
2023-03-06T23:27:41.472Z,55.40
2023-03-06T23:30:44.921Z,50.75
2023-03-06T23:33:48.379Z,54.20
2023-03-06T23:36:51.666Z,53.60
2023-03-06T23:39:54.870Z,57.00
2023-03-06T23:42:57.955Z,56.67
2023-03-06T23:46:01.190Z,54.60
2023-03-06T23:49:04.438Z,51.90
2023-03-06T23:52:07.539Z,52.28
2023-03-06T23:55:10.925Z,52.42
2023-03-06T23:58:15.140Z,48.78
